Time;durP1;ratioP1;P1;durP2;ratioP2;P2;SDS_P1;SDS_P2;PMS_P1;PMS_P2;Temp;Humidity;BMP_temperature;BMP_pressure;BME280_temperature;BME280_humidity;BME280_pressure;Samples;Min_cycle;Max_cycle;Signal;HPM_P1;HPM_P2
2022/10/28 00:00:05;;;;;;;16.70;9.32;;;;;;;;;;5134130;27;20051;-63
2022/10/28 00:02:31;;;;;;;16.17;8.90;;;;;;;;;;5143306;27;20054;-61
2022/10/28 00:04:58;;;;;;;16.40;8.25;;;;;;;;;;5138173;27;20424;-62
2022/10/28 00:07:24;;;;;;;19.42;8.77;;;;;;;;;;5136015;27;20051;-62
2022/10/28 00:09:51;;;;;;;14.85;8.38;;;;;;;;;;5123555;27;20048;-63
2022/10/28 00:12:17;;;;;;;13.32;8.23;;;;;;;;;;5137175;27;20051;-63
2022/10/28 00:14:43;;;;;;;15.70;8.75;;;;;;;;;;5132951;27;20421;-62
2022/10/28 00:17:10;;;;;;;19.00;8.45;;;;;;;;;;5123937;27;20070;-62
2022/10/28 00:19:36;;;;;;;21.45;9.88;;;;;;;;;;5124832;27;20048;-63
2022/10/28 00:22:02;;;;;;;12.15;7.75;;;;;;;;;;5142526;27;20879;-63
2022/10/28 00:24:29;;;;;;;17.08;8.95;;;;;;;;;;5125539;27;20552;-62
2022/10/28 00:26:55;;;;;;;15.23;8.70;;;;;;;;;;5126281;27;20058;-63
2022/10/28 00:29:23;;;;;;;14.65;8.35;;;;;;;;;;5141674;27;20051;-62
2022/10/28 00:31:51;;;;;;;17.08;9.15;;;;;;;;;;5145698;27;20054;-62
2022/10/28 00:34:20;;;;;;;12.20;8.00;;;;;;;;;;5139218;27;20048;-62
2022/10/28 00:36:46;;;;;;;17.98;8.80;;;;;;;;;;5141811;27;20047;-63
2022/10/28 00:39:17;;;;;;;16.98;8.23;;;;;;;;;;5125096;27;20060;-62
2022/10/28 00:41:54;;;;;;;18.90;8.00;;;;;;;;;;5141835;27;20051;-63
2022/10/28 00:44:39;;;;;;;19.08;7.80;;;;;;;;;;5125926;27;20075;-64
2022/10/28 00:47:35;;;;;;;15.07;8.68;;;;;;;;;;5138566;27;20047;-62
2022/10/28 00:50:04;;;;;;;19.92;9.10;;;;;;;;;;5111313;27;20489;-62
2022/10/28 00:52:31;;;;;;;19.77;8.68;;;;;;;;;;5125711;27;20492;-62
2022/10/28 00:54:58;;;;;;;19.58;8.48;;;;;;;;;;5124587;27;20062;-62
2022/10/28 00:57:27;;;;;;;18.80;8.63;;;;;;;;;;5125460;27;20170;-62
2022/10/28 00:59:53;;;;;;;15.30;8.40;;;;;;;;;;5125359;27;20050;-61
2022/10/28 01:02:20;;;;;;;17.17;8.18;;;;;;;;;;5133921;27;20055;-62
2022/10/28 01:04:47;;;;;;;14.25;8.80;;;;;;;;;;5125290;27;20114;-62
2022/10/28 01:07:14;;;;;;;15.57;8.68;;;;;;;;;;5125191;27;20063;-62
2022/10/28 01:09:40;;;;;;;24.10;8.10;;;;;;;;;;5125212;27;20051;-61
2022/10/28 01:12:10;;;;;;;21.73;9.02;;;;;;;;;;5129023;27;20048;-61
2022/10/28 01:14:50;;;;;;;13.23;8.93;;;;;;;;;;5130209;27;20080;-64
2022/10/28 01:17:25;;;;;;;17.15;8.65;;;;;;;;;;5144869;27;20051;-62
2022/10/28 01:20:05;;;;;;;19.25;8.90;;;;;;;;;;5126969;27;20058;-63
2022/10/28 01:22:35;;;;;;;13.90;7.90;;;;;;;;;;5135368;27;20051;-63
2022/10/28 01:25:16;;;;;;;14.13;8.60;;;;;;;;;;5124190;27;20052;-61
2022/10/28 01:27:43;;;;;;;20.92;9.43;;;;;;;;;;5128238;27;20066;-62
2022/10/28 01:30:19;;;;;;;15.55;9.40;;;;;;;;;;5144827;27;20401;-62
2022/10/28 01:33:01;;;;;;;23.20;9.82;;;;;;;;;;5145304;27;20058;-62
2022/10/28 01:35:51;;;;;;;15.63;8.50;;;;;;;;;;5130740;27;20063;-62
2022/10/28 01:38:27;;;;;;;16.38;8.80;;;;;;;;;;5129467;27;20042;-62
2022/10/28 01:41:13;;;;;;;13.10;8.75;;;;;;;;;;5125978;27;20051;-62
2022/10/28 01:43:45;;;;;;;13.90;9.55;;;;;;;;;;5139886;27;20058;-63
2022/10/28 01:46:17;;;;;;;15.75;8.43;;;;;;;;;;5143605;27;20059;-65
2022/10/28 01:48:46;;;;;;;13.15;8.07;;;;;;;;;;5132204;27;20053;-65
2022/10/28 01:51:20;;;;;;;14.25;7.63;;;;;;;;;;5124293;27;20055;-63
2022/10/28 01:53:48;;;;;;;16.73;8.85;;;;;;;;;;5126119;27;20047;-63
2022/10/28 01:56:16;;;;;;;15.45;8.77;;;;;;;;;;5124108;27;20113;-64
2022/10/28 01:58:43;;;;;;;15.30;7.93;;;;;;;;;;5124630;27;20075;-63
2022/10/28 02:01:09;;;;;;;15.35;8.25;;;;;;;;;;5131533;27;20063;-63
2022/10/28 02:03:36;;;;;;;16.67;9.30;;;;;;;;;;5143950;27;20051;-62
2022/10/28 02:06:03;;;;;;;14.38;9.63;;;;;;;;;;5132305;27;20080;-64
2022/10/28 02:08:43;;;;;;;12.23;8.40;;;;;;;;;;5129036;27;20566;-63
2022/10/28 02:11:18;;;;;;;13.88;8.57;;;;;;;;;;5124458;27;20052;-63
2022/10/28 02:14:03;;;;;;;16.73;9.30;;;;;;;;;;5140436;27;20113;-63
2022/10/28 02:16:35;;;;;;;14.63;7.93;;;;;;;;;;5124140;27;20047;-63
2022/10/28 02:19:01;;;;;;;17.40;9.95;;;;;;;;;;5142128;27;20092;-63
2022/10/28 02:21:33;;;;;;;17.63;8.50;;;;;;;;;;5129183;27;20133;-62
2022/10/28 02:24:05;;;;;;;14.85;8.68;;;;;;;;;;5132194;27;20051;-62
2022/10/28 02:26:40;;;;;;;13.25;9.02;;;;;;;;;;5124679;27;20505;-62
2022/10/28 02:29:21;;;;;;;14.93;7.75;;;;;;;;;;5127028;27;20048;-62
2022/10/28 02:31:49;;;;;;;21.17;9.48;;;;;;;;;;5132421;27;20054;-62
2022/10/28 02:34:18;;;;;;;21.83;8.73;;;;;;;;;;5138302;27;20051;-62
2022/10/28 02:36:47;;;;;;;17.33;9.10;;;;;;;;;;5124267;27;20051;-62
2022/10/28 02:39:15;;;;;;;12.50;8.43;;;;;;;;;;5143584;27;20051;-64
2022/10/28 02:41:56;;;;;;;17.40;8.30;;;;;;;;;;5144265;27;20039;-62
2022/10/28 02:44:25;;;;;;;15.77;9.02;;;;;;;;;;5123118;27;20472;-63
2022/10/28 02:46:53;;;;;;;19.88;8.90;;;;;;;;;;5129011;27;20062;-63
2022/10/28 02:49:20;;;;;;;17.33;9.13;;;;;;;;;;5127484;27;20128;-62
2022/10/28 02:51:56;;;;;;;21.58;9.43;;;;;;;;;;5124429;27;20063;-62
2022/10/28 02:54:23;;;;;;;16.35;8.77;;;;;;;;;;5123777;27;20134;-61
2022/10/28 02:57:21;;;;;;;17.75;9.70;;;;;;;;;;5125129;27;20062;-62
2022/10/28 02:59:52;;;;;;;15.73;8.57;;;;;;;;;;5089509;27;20740;-63
2022/10/28 03:02:18;;;;;;;15.77;8.18;;;;;;;;;;5124927;27;20048;-63
2022/10/28 03:04:44;;;;;;;14.98;8.63;;;;;;;;;;5134061;27;20051;-65
2022/10/28 03:07:11;;;;;;;13.13;8.10;;;;;;;;;;5127593;27;20051;-63
2022/10/28 03:09:37;;;;;;;15.07;8.15;;;;;;;;;;5124717;27;20043;-62
2022/10/28 03:12:03;;;;;;;17.38;8.07;;;;;;;;;;5143116;27;20062;-62
2022/10/28 03:14:30;;;;;;;26.80;8.82;;;;;;;;;;5131822;27;20131;-62
2022/10/28 03:16:56;;;;;;;16.92;8.48;;;;;;;;;;5130103;27;20585;-64
2022/10/28 03:19:23;;;;;;;12.93;7.60;;;;;;;;;;5144463;27;20058;-63
2022/10/28 03:21:50;;;;;;;15.35;8.75;;;;;;;;;;5143472;27;20124;-64
2022/10/28 03:24:16;;;;;;;19.70;8.45;;;;;;;;;;5125219;27;20494;-63
2022/10/28 03:26:42;;;;;;;12.65;8.35;;;;;;;;;;5135812;27;20502;-65
2022/10/28 03:29:08;;;;;;;21.75;9.48;;;;;;;;;;5139308;27;20046;-62
2022/10/28 03:31:35;;;;;;;19.92;8.43;;;;;;;;;;5142338;27;20488;-61
2022/10/28 03:34:01;;;;;;;19.55;8.52;;;;;;;;;;5142917;27;20055;-62
2022/10/28 03:36:27;;;;;;;14.65;8.38;;;;;;;;;;5142617;27;20397;-62
2022/10/28 03:38:54;;;;;;;14.45;8.35;;;;;;;;;;5143191;27;20100;-62
2022/10/28 03:41:20;;;;;;;15.43;8.38;;;;;;;;;;5142159;27;20043;-62
2022/10/28 03:43:46;;;;;;;17.35;7.78;;;;;;;;;;5137149;27;20051;-63
2022/10/28 03:46:13;;;;;;;11.27;7.15;;;;;;;;;;5134404;27;20043;-64
2022/10/28 03:48:39;;;;;;;13.82;8.57;;;;;;;;;;5120735;27;20051;-63
2022/10/28 03:51:05;;;;;;;15.38;8.45;;;;;;;;;;5122101;27;20497;-63
2022/10/28 03:53:32;;;;;;;13.48;8.40;;;;;;;;;;5123501;27;20543;-64
2022/10/28 03:55:59;;;;;;;12.52;8.00;;;;;;;;;;5128893;27;20047;-62
2022/10/28 03:58:26;;;;;;;15.68;7.80;;;;;;;;;;5128747;27;20066;-62
2022/10/28 04:00:52;;;;;;;14.98;8.85;;;;;;;;;;5134000;27;20529;-62
2022/10/28 04:03:19;;;;;;;11.73;7.47;;;;;;;;;;5141878;27;20100;-62
2022/10/28 04:05:49;;;;;;;14.18;7.82;;;;;;;;;;5135180;27;20051;-62
2022/10/28 04:08:16;;;;;;;12.13;8.18;;;;;;;;;;5129688;27;20568;-62
2022/10/28 04:10:43;;;;;;;15.52;7.65;;;;;;;;;;5136795;27;20047;-62
2022/10/28 04:13:13;;;;;;;15.20;6.90;;;;;;;;;;5137447;27;20178;-65
2022/10/28 04:15:39;;;;;;;12.73;7.45;;;;;;;;;;5136869;27;20059;-63
2022/10/28 04:18:05;;;;;;;13.63;8.15;;;;;;;;;;5133193;27;20532;-64
2022/10/28 04:20:32;;;;;;;12.15;6.97;;;;;;;;;;5143867;27;20604;-64
2022/10/28 04:22:59;;;;;;;18.52;8.57;;;;;;;;;;5128808;27;20059;-61
2022/10/28 04:25:26;;;;;;;13.07;6.97;;;;;;;;;;5128249;27;20151;-64
2022/10/28 04:27:52;;;;;;;18.98;7.00;;;;;;;;;;5131933;27;20051;-64
2022/10/28 04:30:19;;;;;;;15.45;7.55;;;;;;;;;;5129322;27;20074;-63
2022/10/28 04:32:46;;;;;;;10.95;7.10;;;;;;;;;;5132745;27;20505;-63
2022/10/28 04:35:13;;;;;;;15.52;6.72;;;;;;;;;;5120502;27;20541;-62
2022/10/28 04:37:39;;;;;;;13.70;6.80;;;;;;;;;;5138263;27;20488;-64
2022/10/28 04:40:07;;;;;;;15.05;7.30;;;;;;;;;;5137766;27;20452;-63
2022/10/28 04:42:33;;;;;;;17.15;7.10;;;;;;;;;;5141902;27;20055;-64
2022/10/28 04:44:59;;;;;;;17.35;7.45;;;;;;;;;;5139766;27;20055;-63
2022/10/28 04:47:25;;;;;;;14.77;7.00;;;;;;;;;;5134474;27;20043;-63
2022/10/28 04:49:52;;;;;;;14.80;7.13;;;;;;;;;;5137552;27;20056;-64
2022/10/28 04:52:18;;;;;;;19.73;7.28;;;;;;;;;;5123246;27;20114;-62
2022/10/28 04:54:45;;;;;;;19.50;8.18;;;;;;;;;;5129281;27;20495;-62
2022/10/28 04:57:11;;;;;;;17.50;7.72;;;;;;;;;;5134354;27;20062;-61
2022/10/28 04:59:37;;;;;;;10.40;6.55;;;;;;;;;;5140468;27;20055;-62
2022/10/28 05:02:04;;;;;;;18.63;7.85;;;;;;;;;;5126617;27;20507;-62
2022/10/28 05:04:30;;;;;;;15.82;6.43;;;;;;;;;;5134073;27;20052;-63
2022/10/28 05:06:57;;;;;;;16.63;7.55;;;;;;;;;;5123491;27;20533;-63
2022/10/28 05:09:23;;;;;;;12.18;6.55;;;;;;;;;;5126513;27;20515;-62
2022/10/28 05:11:49;;;;;;;15.38;7.20;;;;;;;;;;5130603;27;20051;-64
2022/10/28 05:14:16;;;;;;;15.00;6.68;;;;;;;;;;5145468;27;20525;-62
2022/10/28 05:16:42;;;;;;;14.88;6.78;;;;;;;;;;5145600;27;20051;-62
2022/10/28 05:19:09;;;;;;;12.93;7.05;;;;;;;;;;5136564;27;20069;-62
2022/10/28 05:21:35;;;;;;;14.35;7.63;;;;;;;;;;5125516;27;20368;-62
2022/10/28 05:24:01;;;;;;;14.07;6.80;;;;;;;;;;5125649;27;20055;-63
2022/10/28 05:26:27;;;;;;;18.30;7.45;;;;;;;;;;5128283;27;20578;-63
2022/10/28 05:28:54;;;;;;;15.23;7.18;;;;;;;;;;5124609;27;20063;-62
2022/10/28 05:31:20;;;;;;;14.48;7.25;;;;;;;;;;5130193;27;20060;-63
2022/10/28 05:33:46;;;;;;;14.00;7.65;;;;;;;;;;5137437;27;20074;-62
2022/10/28 05:36:12;;;;;;;17.58;7.97;;;;;;;;;;5126773;27;20617;-62
2022/10/28 05:38:41;;;;;;;13.05;7.40;;;;;;;;;;5146074;27;20492;-62
2022/10/28 05:41:07;;;;;;;18.73;7.43;;;;;;;;;;5136031;27;20052;-62
2022/10/28 05:43:33;;;;;;;15.60;8.30;;;;;;;;;;5124748;27;20052;-63
2022/10/28 05:46:01;;;;;;;14.10;7.35;;;;;;;;;;5140690;27;20112;-62
2022/10/28 05:48:27;;;;;;;9.80;6.22;;;;;;;;;;5121318;27;20691;-62
2022/10/28 05:50:54;;;;;;;13.07;6.97;;;;;;;;;;5133637;27;20497;-62
2022/10/28 05:53:20;;;;;;;14.73;7.32;;;;;;;;;;5124673;27;20468;-62
2022/10/28 05:55:46;;;;;;;14.50;7.18;;;;;;;;;;5123913;27;20048;-63
2022/10/28 05:58:13;;;;;;;18.25;8.48;;;;;;;;;;5131271;27;20436;-64
2022/10/28 06:00:39;;;;;;;19.27;9.23;;;;;;;;;;5128544;27;20055;-63
2022/10/28 06:03:09;;;;;;;13.23;7.85;;;;;;;;;;5141725;27;20577;-62
2022/10/28 06:05:36;;;;;;;18.65;8.15;;;;;;;;;;5124822;27;20078;-63
2022/10/28 06:08:05;;;;;;;18.58;8.80;;;;;;;;;;5138233;27;20044;-63
2022/10/28 06:10:31;;;;;;;16.52;7.28;;;;;;;;;;5128099;27;20527;-63
2022/10/28 06:12:58;;;;;;;16.83;7.85;;;;;;;;;;5134685;27;20055;-62
2022/10/28 06:15:24;;;;;;;16.98;7.53;;;;;;;;;;5140802;27;20051;-63
2022/10/28 06:17:53;;;;;;;15.63;7.60;;;;;;;;;;5136049;27;20048;-63
2022/10/28 06:20:20;;;;;;;15.85;8.48;;;;;;;;;;5135742;27;20050;-62
2022/10/28 06:22:47;;;;;;;14.73;7.78;;;;;;;;;;5141407;27;20055;-64
2022/10/28 06:25:14;;;;;;;14.52;7.25;;;;;;;;;;5126824;27;20509;-63
2022/10/28 06:27:40;;;;;;;11.95;6.90;;;;;;;;;;5132792;27;20145;-63
2022/10/28 06:30:07;;;;;;;15.60;7.40;;;;;;;;;;5135142;27;20051;-62
2022/10/28 06:32:33;;;;;;;17.92;6.78;;;;;;;;;;5136863;27;20059;-63
2022/10/28 06:34:59;;;;;;;15.73;6.25;;;;;;;;;;5134250;27;20055;-63
2022/10/28 06:37:25;;;;;;;12.25;7.32;;;;;;;;;;5131027;27;20078;-62
2022/10/28 06:39:53;;;;;;;14.52;7.38;;;;;;;;;;5136660;27;20059;-64
2022/10/28 06:42:19;;;;;;;14.68;7.13;;;;;;;;;;5127305;27;20040;-63
2022/10/28 06:44:46;;;;;;;14.02;7.10;;;;;;;;;;5122604;27;20048;-64
2022/10/28 06:47:12;;;;;;;12.48;6.93;;;;;;;;;;5132990;27;20599;-63
2022/10/28 06:49:38;;;;;;;15.63;6.93;;;;;;;;;;5124424;27;20052;-64
2022/10/28 06:52:05;;;;;;;12.93;6.63;;;;;;;;;;5136722;27;20055;-63
2022/10/28 06:54:31;;;;;;;18.20;7.15;;;;;;;;;;5141115;27;20051;-62
2022/10/28 06:56:57;;;;;;;16.50;6.85;;;;;;;;;;5128205;27;20079;-63
2022/10/28 06:59:24;;;;;;;19.13;7.75;;;;;;;;;;5137293;27;20051;-63
2022/10/28 07:01:50;;;;;;;12.32;6.72;;;;;;;;;;5134277;27;20153;-62
2022/10/28 07:04:16;;;;;;;19.45;7.70;;;;;;;;;;5129184;27;20047;-63
2022/10/28 07:06:43;;;;;;;15.65;7.07;;;;;;;;;;5138974;27;20062;-63
2022/10/28 07:09:13;;;;;;;14.93;6.65;;;;;;;;;;5133679;27;20461;-62
2022/10/28 07:11:42;;;;;;;16.33;6.75;;;;;;;;;;5143525;27;20120;-62
2022/10/28 07:14:09;;;;;;;12.35;6.18;;;;;;;;;;5132564;27;20074;-62
2022/10/28 07:16:35;;;;;;;13.93;6.68;;;;;;;;;;5130978;27;20616;-61
2022/10/28 07:19:02;;;;;;;11.95;6.85;;;;;;;;;;5124686;27;20138;-63
2022/10/28 07:21:28;;;;;;;13.45;6.75;;;;;;;;;;5131224;27;20535;-62
2022/10/28 07:23:55;;;;;;;15.57;6.90;;;;;;;;;;5133428;27;20051;-62
2022/10/28 07:26:21;;;;;;;15.82;6.90;;;;;;;;;;5132604;27;20604;-63
2022/10/28 07:28:48;;;;;;;15.05;6.40;;;;;;;;;;5125432;27;20058;-63
2022/10/28 07:31:14;;;;;;;18.60;7.15;;;;;;;;;;5140730;27;20052;-62
2022/10/28 07:33:41;;;;;;;15.35;7.13;;;;;;;;;;5137135;27;20074;-62
2022/10/28 07:36:07;;;;;;;17.25;8.68;;;;;;;;;;5138889;27;20058;-63
2022/10/28 07:38:33;;;;;;;15.45;7.00;;;;;;;;;;5135848;27;20051;-63
2022/10/28 07:41:06;;;;;;;11.52;5.88;;;;;;;;;;5135049;27;20058;-62
2022/10/28 07:43:37;;;;;;;16.63;6.95;;;;;;;;;;5150716;27;20047;-63
2022/10/28 07:46:04;;;;;;;14.00;6.50;;;;;;;;;;5134416;27;20043;-62
2022/10/28 07:48:30;;;;;;;17.77;6.80;;;;;;;;;;5123806;27;20124;-63
2022/10/28 07:50:59;;;;;;;17.67;6.93;;;;;;;;;;5128198;27;20043;-63
2022/10/28 07:53:25;;;;;;;14.27;7.82;;;;;;;;;;5147964;27;20047;-62
2022/10/28 07:55:55;;;;;;;13.90;6.15;;;;;;;;;;5155134;27;20146;-62
2022/10/28 07:58:21;;;;;;;14.90;6.85;;;;;;;;;;5142824;27;20051;-64
2022/10/28 08:00:47;;;;;;;11.65;6.70;;;;;;;;;;5137317;27;20531;-63
2022/10/28 08:03:14;;;;;;;13.82;6.15;;;;;;;;;;5133977;27;20105;-63
2022/10/28 08:05:40;;;;;;;16.35;5.95;;;;;;;;;;5142598;27;20091;-62
2022/10/28 08:08:06;;;;;;;13.95;6.65;;;;;;;;;;5138216;27;20532;-62
2022/10/28 08:10:33;;;;;;;12.25;6.30;;;;;;;;;;5146275;27;20054;-65
2022/10/28 08:13:00;;;;;;;14.35;6.78;;;;;;;;;;5135177;27;20077;-64
2022/10/28 08:15:28;;;;;;;15.38;6.07;;;;;;;;;;5142356;27;20062;-65
2022/10/28 08:17:55;;;;;;;12.63;6.47;;;;;;;;;;5142805;27;20059;-63
2022/10/28 08:20:22;;;;;;;14.15;6.03;;;;;;;;;;5136560;27;20140;-63
2022/10/28 08:22:48;;;;;;;15.65;6.88;;;;;;;;;;5127107;27;20595;-63
2022/10/28 08:25:15;;;;;;;16.67;6.25;;;;;;;;;;5140914;27;20122;-65
2022/10/28 08:27:41;;;;;;;13.27;6.57;;;;;;;;;;5125566;27;20066;-63
2022/10/28 08:30:08;;;;;;;15.68;6.07;;;;;;;;;;5127095;27;20039;-64
2022/10/28 08:32:34;;;;;;;11.05;5.75;;;;;;;;;;5125156;27;20048;-63
2022/10/28 08:35:00;;;;;;;12.18;5.88;;;;;;;;;;5122611;27;20059;-64
2022/10/28 08:37:27;;;;;;;21.15;7.43;;;;;;;;;;5121675;27;20050;-65
2022/10/28 08:39:53;;;;;;;17.00;6.20;;;;;;;;;;5122714;27;20429;-64
2022/10/28 08:42:39;;;;;;;14.38;6.30;;;;;;;;;;5141762;27;20051;-65
2022/10/28 08:45:14;;;;;;;12.70;5.40;;;;;;;;;;5145108;27;20100;-65
2022/10/28 08:48:04;;;;;;;13.95;5.53;;;;;;;;;;5146926;27;20062;-65
2022/10/28 08:50:32;;;;;;;12.48;5.68;;;;;;;;;;5135426;27;20055;-65
2022/10/28 08:52:58;;;;;;;15.00;5.55;;;;;;;;;;5149999;27;20055;-64
2022/10/28 08:55:28;;;;;;;22.15;6.20;;;;;;;;;;5127115;27;20059;-66
2022/10/28 08:57:56;;;;;;;14.05;5.05;;;;;;;;;;5135340;27;20169;-63
2022/10/28 09:00:27;;;;;;;11.38;6.00;;;;;;;;;;5145507;27;20078;-65
2022/10/28 09:03:13;;;;;;;13.07;5.50;;;;;;;;;;5146114;27;20051;-65
2022/10/28 09:05:41;;;;;;;15.27;6.32;;;;;;;;;;5146069;27;20058;-65
2022/10/28 09:08:16;;;;;;;19.73;5.30;;;;;;;;;;5146320;27;20100;-64
2022/10/28 09:11:01;;;;;;;14.68;5.30;;;;;;;;;;5146663;27;20497;-64
2022/10/28 09:13:30;;;;;;;13.77;5.15;;;;;;;;;;5144936;27;20160;-65
2022/10/28 09:16:17;;;;;;;12.93;4.85;;;;;;;;;;5146026;27;20054;-64
2022/10/28 09:18:51;;;;;;;13.20;5.40;;;;;;;;;;5092389;27;20052;-64
2022/10/28 09:21:19;;;;;;;13.23;4.65;;;;;;;;;;5125954;27;20051;-65
2022/10/28 09:23:49;;;;;;;12.10;4.45;;;;;;;;;;5132978;27;20440;-64
2022/10/28 09:26:16;;;;;;;12.90;5.55;;;;;;;;;;5146119;27;20050;-64
2022/10/28 09:28:45;;;;;;;9.00;4.70;;;;;;;;;;5133774;27;20059;-66
2022/10/28 09:31:21;;;;;;;17.08;5.13;;;;;;;;;;5137417;27;20051;-66
2022/10/28 09:34:10;;;;;;;13.73;5.22;;;;;;;;;;5138226;27;20065;-65
2022/10/28 09:36:40;;;;;;;16.73;5.72;;;;;;;;;;5131746;27;20047;-66
2022/10/28 09:39:09;;;;;;;14.18;5.88;;;;;;;;;;5129529;27;20051;-66
2022/10/28 09:41:37;;;;;;;13.25;5.70;;;;;;;;;;5125506;27;20064;-65
2022/10/28 09:44:17;;;;;;;16.10;5.65;;;;;;;;;;5124982;27;20058;-65
2022/10/28 09:46:45;;;;;;;10.05;4.57;;;;;;;;;;5129796;27;20055;-64
2022/10/28 09:49:16;;;;;;;12.93;5.00;;;;;;;;;;5129177;27;20134;-65
2022/10/28 09:52:18;;;;;;;20.35;5.45;;;;;;;;;;5141618;27;20081;-64
2022/10/28 09:54:47;;;;;;;37.42;8.05;;;;;;;;;;5052529;28;20463;-65
2022/10/28 09:57:14;;;;;;;42.60;8.85;;;;;;;;;;5049641;28;20059;-65
2022/10/28 09:59:42;;;;;;;15.30;6.15;;;;;;;;;;5054801;28;20721;-64
2022/10/28 10:02:24;;;;;;;28.55;6.10;;;;;;;;;;5058782;28;20080;-65
2022/10/28 10:04:50;;;;;;;68.10;10.15;;;;;;;;;;5047980;28;20053;-65
2022/10/28 10:07:24;;;;;;;52.65;10.98;;;;;;;;;;5045118;28;20061;-65
2022/10/28 10:09:51;;;;;;;19.30;5.97;;;;;;;;;;5050798;28;20053;-64
2022/10/28 10:12:18;;;;;;;21.73;5.82;;;;;;;;;;5049484;28;20593;-63
2022/10/28 10:14:47;;;;;;;9.05;4.40;;;;;;;;;;5053309;28;20053;-63
2022/10/28 10:17:16;;;;;;;14.20;5.40;;;;;;;;;;5059337;28;20060;-64
2022/10/28 10:20:01;;;;;;;15.45;5.40;;;;;;;;;;5040469;28;20092;-64
2022/10/28 10:22:29;;;;;;;16.83;5.45;;;;;;;;;;5048251;28;20063;-64
2022/10/28 10:24:56;;;;;;;13.48;5.57;;;;;;;;;;5059538;28;20036;-64
2022/10/28 10:27:24;;;;;;;15.60;4.55;;;;;;;;;;5055661;28;20053;-64
2022/10/28 10:29:51;;;;;;;11.88;5.78;;;;;;;;;;5132148;27;20055;-65
2022/10/28 10:32:30;;;;;;;10.20;5.05;;;;;;;;;;5145529;27;20504;-64
2022/10/28 10:35:00;;;;;;;15.65;5.30;;;;;;;;;;5138012;27;20054;-64
2022/10/28 10:37:28;;;;;;;17.05;5.63;;;;;;;;;;5127309;27;20055;-65
2022/10/28 10:39:59;;;;;;;16.45;5.68;;;;;;;;;;5132777;27;20091;-65
2022/10/28 10:42:26;;;;;;;16.42;5.70;;;;;;;;;;5143601;27;20058;-66
2022/10/28 10:44:57;;;;;;;17.30;6.28;;;;;;;;;;5134092;27;20051;-65
2022/10/28 10:47:23;;;;;;;14.60;5.30;;;;;;;;;;5139616;27;20508;-64
2022/10/28 10:49:50;;;;;;;14.95;6.38;;;;;;;;;;5131946;27;20048;-65
2022/10/28 10:52:22;;;;;;;11.20;4.38;;;;;;;;;;5124117;27;20510;-64
2022/10/28 10:54:57;;;;;;;15.20;4.78;;;;;;;;;;5128450;27;20079;-65
2022/10/28 10:57:24;;;;;;;14.15;5.53;;;;;;;;;;5138831;27;20165;-65
2022/10/28 10:59:51;;;;;;;12.02;4.80;;;;;;;;;;5130033;27;20060;-64
2022/10/28 11:02:33;;;;;;;11.27;4.63;;;;;;;;;;5132471;27;20044;-65
2022/10/28 11:05:05;;;;;;;14.23;5.40;;;;;;;;;;5132995;27;20122;-66
2022/10/28 11:07:32;;;;;;;10.30;4.38;;;;;;;;;;5133561;27;20052;-66
2022/10/28 11:09:58;;;;;;;18.20;5.55;;;;;;;;;;5123319;27;20044;-66
2022/10/28 11:12:30;;;;;;;9.95;5.13;;;;;;;;;;5123946;27;20078;-66
2022/10/28 11:14:59;;;;;;;9.68;4.05;;;;;;;;;;5123967;27;20505;-65
2022/10/28 11:17:27;;;;;;;20.02;5.75;;;;;;;;;;5124285;27;20433;-65
2022/10/28 11:19:55;;;;;;;13.32;4.95;;;;;;;;;;5124303;27;20047;-65
2022/10/28 11:22:24;;;;;;;11.82;4.68;;;;;;;;;;5139616;27;20047;-65
2022/10/28 11:24:59;;;;;;;10.20;4.68;;;;;;;;;;5138291;27;20548;-66
2022/10/28 11:27:25;;;;;;;;;;;;;;;;;;5143025;27;20511;-65
2022/10/28 11:29:53;;;;;;;11.80;4.80;;;;;;;;;;5130195;27;46783;-65
2022/10/28 11:32:34;;;;;;;11.60;4.43;;;;;;;;;;5141296;27;20051;-65
2022/10/28 11:35:15;;;;;;;15.25;4.65;;;;;;;;;;5122121;27;20048;-65
2022/10/28 11:37:56;;;;;;;15.30;5.13;;;;;;;;;;5124018;27;20099;-65
2022/10/28 11:40:36;;;;;;;7.70;4.60;;;;;;;;;;5137450;27;20558;-66
2022/10/28 11:43:05;;;;;;;18.00;5.50;;;;;;;;;;5128140;27;20043;-65
2022/10/28 11:45:40;;;;;;;14.48;4.78;;;;;;;;;;5123250;27;20093;-65
2022/10/28 11:48:28;;;;;;;9.80;4.75;;;;;;;;;;5130715;27;20070;-65
2022/10/28 11:51:13;;;;;;;12.27;4.47;;;;;;;;;;5125981;27;20146;-65
2022/10/28 11:53:48;;;;;;;9.82;4.63;;;;;;;;;;5122535;27;20722;-65
2022/10/28 11:56:20;;;;;;;10.88;5.15;;;;;;;;;;5122488;27;20565;-64
2022/10/28 11:58:58;;;;;;;14.98;4.68;;;;;;;;;;5121716;27;20047;-65
2022/10/28 12:01:31;;;;;;;16.48;5.07;;;;;;;;;;5142714;27;20047;-66
2022/10/28 12:04:13;;;;;;;18.40;4.93;;;;;;;;;;5142380;27;20058;-65
2022/10/28 12:06:53;;;;;;;13.55;4.00;;;;;;;;;;5132156;27;20057;-65
2022/10/28 12:09:25;;;;;;;19.60;4.95;;;;;;;;;;5135381;27;20051;-65
2022/10/28 12:12:03;;;;;;;14.45;4.63;;;;;;;;;;5122630;27;20064;-65
2022/10/28 12:14:50;;;;;;;11.52;4.00;;;;;;;;;;5142457;27;20469;-65
2022/10/28 12:17:19;;;;;;;12.05;4.25;;;;;;;;;;5132479;27;20051;-67
2022/10/28 12:19:49;;;;;;;9.07;4.20;;;;;;;;;;5144035;27;20096;-66
2022/10/28 12:22:21;;;;;;;14.32;5.38;;;;;;;;;;5145899;27;20104;-66
2022/10/28 12:24:48;;;;;;;14.38;4.22;;;;;;;;;;5141161;27;20073;-67
2022/10/28 12:27:15;;;;;;;9.40;3.83;;;;;;;;;;5129787;27;20684;-67
2022/10/28 12:29:46;;;;;;;12.32;4.65;;;;;;;;;;5144382;27;20051;-67
2022/10/28 12:32:18;;;;;;;10.15;4.03;;;;;;;;;;5145138;27;20515;-67
2022/10/28 12:35:14;;;;;;;15.00;4.43;;;;;;;;;;5146979;27;20058;-66
2022/10/28 12:38:06;;;;;;;12.32;3.20;;;;;;;;;;5060930;28;20894;-66
2022/10/28 12:40:49;;;;;;;11.73;4.55;;;;;;;;;;5041882;28;20045;-65
2022/10/28 12:43:23;;;;;;;15.93;4.35;;;;;;;;;;5054145;28;20481;-66
2022/10/28 12:45:52;;;;;;;16.90;3.90;;;;;;;;;;5059825;28;20053;-65
2022/10/28 12:48:21;;;;;;;17.92;4.53;;;;;;;;;;5060186;28;20674;-65
2022/10/28 12:51:06;;;;;;;19.77;4.72;;;;;;;;;;5060291;28;20550;-65
2022/10/28 12:53:55;;;;;;;14.23;4.23;;;;;;;;;;5060408;28;20126;-66
2022/10/28 12:56:24;;;;;;;14.18;4.15;;;;;;;;;;5058349;28;20478;-65
2022/10/28 12:58:58;;;;;;;12.63;4.47;;;;;;;;;;5060680;28;20164;-65
2022/10/28 13:01:27;;;;;;;15.10;4.40;;;;;;;;;;5060773;28;20064;-65
2022/10/28 13:03:54;;;;;;;11.18;3.88;;;;;;;;;;5060473;28;20057;-65
2022/10/28 13:06:23;;;;;;;14.00;4.10;;;;;;;;;;5059523;28;20522;-65
2022/10/28 13:09:08;;;;;;;13.63;4.07;;;;;;;;;;5041222;28;20053;-65
2022/10/28 13:11:34;;;;;;;11.55;4.45;;;;;;;;;;5041665;28;20462;-65
2022/10/28 13:14:12;;;;;;;14.38;4.03;;;;;;;;;;5080906;27;20050;-65
2022/10/28 13:16:47;;;;;;;9.93;3.88;;;;;;;;;;5144879;27;20062;-65
2022/10/28 13:19:19;;;;;;;13.07;3.93;;;;;;;;;;5144231;27;20051;-65
2022/10/28 13:21:45;;;;;;;19.55;5.03;;;;;;;;;;5131922;27;20300;-65
2022/10/28 13:24:15;;;;;;;12.45;4.45;;;;;;;;;;5141483;27;20062;-66
2022/10/28 13:26:42;;;;;;;10.38;4.97;;;;;;;;;;5144558;27;20100;-65
2022/10/28 13:29:22;;;;;;;10.82;3.88;;;;;;;;;;5143219;27;20043;-65
2022/10/28 13:31:49;;;;;;;14.48;4.10;;;;;;;;;;5146943;27;20441;-64
2022/10/28 13:34:17;;;;;;;8.60;3.70;;;;;;;;;;5130030;27;20871;-65
2022/10/28 13:36:45;;;;;;;14.38;3.97;;;;;;;;;;5141143;27;20441;-65
2022/10/28 13:39:21;;;;;;;11.57;4.45;;;;;;;;;;5142882;27;20052;-65
2022/10/28 13:41:47;;;;;;;8.80;4.00;;;;;;;;;;5136073;27;20119;-64
2022/10/28 13:44:17;;;;;;;11.77;4.03;;;;;;;;;;5128052;27;20143;-65
2022/10/28 13:46:55;;;;;;;15.80;4.32;;;;;;;;;;5123011;27;20228;-64
2022/10/28 13:49:23;;;;;;;12.38;4.63;;;;;;;;;;5140674;27;20046;-65
2022/10/28 13:51:50;;;;;;;17.05;4.22;;;;;;;;;;5130907;27;20056;-65
2022/10/28 13:54:29;;;;;;;12.75;4.38;;;;;;;;;;5128383;27;20620;-65
2022/10/28 13:57:01;;;;;;;10.98;4.55;;;;;;;;;;5133479;27;20052;-65
2022/10/28 13:59:29;;;;;;;9.98;3.85;;;;;;;;;;5135549;27;20555;-65
2022/10/28 14:01:56;;;;;;;21.80;5.03;;;;;;;;;;5126262;27;20046;-65
2022/10/28 14:04:35;;;;;;;27.20;6.32;;;;;;;;;;5126226;27;20637;-64
2022/10/28 14:07:03;;;;;;;22.85;5.13;;;;;;;;;;5138355;27;20586;-65
2022/10/28 14:09:31;;;;;;;10.25;4.00;;;;;;;;;;5134027;27;20071;-64
2022/10/28 14:12:03;;;;;;;14.10;5.10;;;;;;;;;;5144959;27;20047;-65
2022/10/28 14:14:30;;;;;;;17.52;4.60;;;;;;;;;;5140130;27;20134;-64
2022/10/28 14:16:57;;;;;;;13.02;4.18;;;;;;;;;;5129414;27;20437;-65
2022/10/28 14:19:23;;;;;;;17.75;4.43;;;;;;;;;;5143347;27;20432;-63
2022/10/28 14:22:00;;;;;;;17.10;4.78;;;;;;;;;;5142692;27;20047;-64
2022/10/28 14:24:38;;;;;;;10.63;4.07;;;;;;;;;;5145487;27;20055;-65
2022/10/28 14:27:05;;;;;;;12.00;4.15;;;;;;;;;;5140412;27;20477;-64
2022/10/28 14:29:45;;;;;;;13.70;4.72;;;;;;;;;;5123932;27;20530;-65
2022/10/28 14:32:29;;;;;;;12.80;3.80;;;;;;;;;;5123920;27;20055;-64
2022/10/28 14:35:04;;;;;;;15.10;3.83;;;;;;;;;;5126784;27;20506;-65
2022/10/28 14:37:42;;;;;;;12.10;4.10;;;;;;;;;;5124881;27;20047;-65
2022/10/28 14:40:22;;;;;;;14.35;4.40;;;;;;;;;;5125495;27;20048;-66
2022/10/28 14:43:07;;;;;;;10.25;4.40;;;;;;;;;;5130466;27;20050;-65
2022/10/28 14:45:34;;;;;;;12.98;4.35;;;;;;;;;;5140797;27;20051;-64
2022/10/28 14:48:09;;;;;;;10.35;4.28;;;;;;;;;;5143602;27;20472;-63